Date,TemperatureHighF,TemperatureAvgF,TemperatureLowF,DewpointHighF,DewpointAvgF,DewpointLowF,HumidityHigh,HumidityAvg,HumidityLow,PressureMaxIn,PressureMinIn,WindSpeedMaxMPH,WindSpeedAvgMPH,GustSpeedMaxMPH,PrecipitationSumIn
2014-1-1,66.4,57.3,51.3,42.1,27.5,19.3,54,32,23,30.16,30.07,0,0,2,0.00
2014-1-2,66.6,58.5,53.3,32.9,27.9,-99.9,41,32,24,30.12,30.00,1,0,7,0.00
2014-1-3,68.1,58.3,53.5,42.9,33.8,25.8,52,40,29,30.00,29.90,0,0,1,0.00
2014-1-4,67.8,57.3,50.8,39.8,27.3,9.5,65,34,15,30.02,29.90,1,0,12,0.00
2014-1-5,66.3,56.8,50.7,27.8,12.8,5.7,33,18,14,30.14,29.98,2,0,17,0.00
2014-1-6,63.2,55.5,51.6,37.5,31.5,22.0,54,40,27,30.22,30.10,0,0,7,0.00
2014-1-7,58.4,52.3,47.7,48.4,38.2,28.9,94,60,39,30.16,30.08,0,0,6,0.00
2014-1-8,54.4,50.0,48.2,49.2,47.4,45.7,95,91,77,30.17,30.09,0,0,3,0.00
2014-1-9,59.2,50.9,47.0,49.7,43.6,35.1,95,77,56,30.21,30.13,4,0,11,0.00
2014-1-10,59.6,52.5,46.7,46.6,42.6,36.9,89,70,56,30.25,30.13,0,0,1,0.00
2014-1-11,53.2,49.3,45.7,49.1,45.8,42.6,95,88,71,30.24,30.10,5,0,14,0.00
2014-1-12,59.3,50.8,43.1,45.2,36.6,-99.9,92,63,36,30.33,30.21,2,0,12,0.00
2014-1-13,65.0,55.3,46.2,34.7,32.5,30.2,62,43,28,30.38,30.27,2,0,20,0.00
2014-1-14,70.1,60.7,52.8,32.5,25.2,-99.9,41,27,19,30.38,30.23,1,0,14,0.00
2014-1-15,71.8,63.5,55.1,32.0,23.0,13.0,41,22,12,30.25,30.13,3,0,22,0.00
2014-1-16,73.2,64.6,57.5,24.4,16.8,7.3,24,16,10,30.14,30.06,1,0,17,0.00
2014-1-17,64.0,61.2,59.0,28.1,17.2,8.1,28,19,11,30.10,30.05,0,0,6,0.00
2014-1-18,72.7,63.0,57.5,29.1,18.5,-99.9,28,18,14,30.11,30.00,1,0,10,0.00
2014-1-19,69.6,60.3,54.5,33.8,27.1,18.0,42,29,19,30.06,29.99,0,0,10,0.00
2014-1-20,70.8,61.2,54.4,26.7,22.4,12.8,32,23,16,30.16,30.03,1,0,11,0.00
2014-1-21,69.8,60.2,53.5,32.3,21.8,12.4,37,23,16,30.19,30.09,1,0,11,0.00
2014-1-22,67.6,60.6,55.6,39.0,22.4,13.7,42,24,15,30.10,29.85,1,0,6,0.00
2014-1-23,67.1,57.8,51.9,42.1,22.8,-99.9,69,27,18,29.94,29.80,2,0,20,0.00
2014-1-24,66.8,57.5,50.4,41.5,33.1,24.1,66,41,25,30.21,29.94,1,0,6,0.00
2014-1-25,73.3,61.4,52.6,44.2,30.0,18.2,67,34,15,30.21,30.06,0,0,8,0.00
2014-1-26,68.1,57.9,47.3,47.2,35.4,23.0,94,48,24,30.07,29.96,0,0,7,0.00
2014-1-27,58.1,49.0,45.1,47.7,45.7,42.2,95,89,63,30.14,30.00,2,0,8,0.00
2014-1-28,62.6,54.3,48.8,53.7,49.3,-99.9,95,85,64,30.21,30.12,1,0,8,0.00
2014-1-29,55.7,53.6,48.0,54.3,52.3,46.9,96,95,94,30.15,29.94,3,0,10,0.00
2014-1-30,57.6,49.9,47.1,47.4,45.4,42.8,96,85,64,29.94,29.80,3,0,11,0.00
2014-1-31,58.1,48.6,43.6,43.9,35.8,24.7,86,64,28,30.03,29.85,4,0,11,0.00
2014-2-1,55.1,45.9,40.3,41.2,34.2,24.4,88,65,33,30.11,30.01,1,0,6,0.00
2014-2-2,48.6,44.1,41.1,41.4,38.0,-99.9,90,81,57,30.00,29.80,3,0,17,0.00
2014-2-3,51.9,44.3,39.1,40.4,36.9,34.3,90,76,56,30.03,29.94,2,0,7,0.00
2014-2-4,53.3,44.3,40.3,39.0,36.1,32.9,85,73,55,30.11,30.02,0,-4,2,0.00
2014-2-5,49.8,43.6,39.5,41.2,37.2,-99.9,90,80,61,30.15,30.00,1,0,8,0.00
2014-2-6,48.9,44.7,42.5,46.7,40.8,-99.9,95,91,89,30.00,29.84,1,-25,11,0.00
2014-2-7,50.1,48.7,47.4,48.5,47.2,46.0,96,95,91,30.04,29.93,1,0,11,0.00
2014-2-8,55.3,52.9,49.8,54.2,50.3,-99.9,96,94,93,30.10,29.99,5,0,16,0.00
2014-2-9,55.0,54.3,53.1,55.0,53.4,-99.9,100,99,96,30.10,30.01,0,0,5,0.00
2014-2-10,55.0,51.7,49.8,55.0,51.7,49.8,100,100,100,30.23,30.05,1,-4,8,0.00
2014-2-11,55.1,49.4,45.2,52.0,44.7,-99.9,100,93,77,30.20,30.12,0,-4,1,0.00
2014-2-12,56.9,51.1,44.3,51.5,45.8,-99.9,96,86,72,30.23,30.13,0,0,1,0.00
2014-2-13,66.8,57.2,49.8,56.5,50.3,-99.9,97,85,67,30.17,30.04,0,0,1,0.00
2014-2-14,58.4,54.1,52.0,56.4,51.5,48.9,98,91,82,30.12,30.00,0,0,1,0.00
2014-2-15,54.5,52.7,51.7,51.4,49.4,-99.9,95,90,85,30.00,29.93,0,0,1,0.00
2014-2-16,62.4,51.1,44.8,51.7,37.7,-99.9,96,69,30,30.16,29.98,0,-44,2,0.00
2014-2-17,58.6,51.3,45.1,44.5,40.3,35.3,85,67,43,30.12,30.03,2,0,8,0.00
2014-2-18,60.5,52.2,46.5,48.1,44.1,-99.9,90,76,53,30.15,30.05,4,0,12,0.00
2014-2-19,63.4,53.7,46.7,49.9,44.1,37.8,95,72,45,30.15,30.04,3,0,8,0.00
2014-2-20,67.3,55.8,46.5,42.5,35.2,-99.9,77,49,27,30.17,30.05,0,0,7,0.00
2014-2-21,65.6,57.5,51.4,46.6,40.0,32.2,80,53,30,30.06,29.93,0,0,1,0.00
2014-2-22,64.0,53.6,46.4,49.8,44.2,36.8,94,71,49,29.96,29.88,0,0,1,0.00
2014-2-23,66.1,53.7,44.5,51.5,46.8,42.5,96,79,55,29.98,29.90,0,0,1,0.00
2014-2-24,68.9,57.8,49.5,50.9,46.0,38.5,94,66,46,29.94,29.85,0,0,2,0.00
2014-2-25,54.7,49.5,46.8,49.5,46.8,45.6,96,91,75,29.93,29.86,0,0,7,0.00
2014-2-26,55.7,52.7,49.2,53.1,49.5,45.2,96,89,77,29.91,29.62,0,0,10,0.00
2014-2-27,59.5,54.3,50.7,51.2,47.4,41.2,96,79,54,29.84,29.47,1,0,8,0.00
2014-2-28,56.6,52.3,50.2,51.5,48.4,40.5,95,87,55,29.47,29.32,1,0,12,0.00
2014-3-1,63.7,54.5,49.5,51.0,46.7,43.6,92,75,54,29.76,29.42,1,0,10,0.00
2014-3-2,54.1,52.5,50.4,52.2,48.8,44.5,96,88,71,30.11,29.75,2,0,10,0.00
2014-3-3,55.4,52.2,50.1,50.2,47.1,45.3,91,83,73,30.11,29.99,2,0,12,0.00
2014-3-4,59.3,53.8,50.8,54.2,50.0,-99.9,96,90,82,30.08,30.00,1,0,10,0.00
2014-3-5,61.8,56.6,53.5,56.3,53.1,50.5,95,88,70,30.06,29.94,0,0,8,0.00
2014-3-6,59.2,53.7,50.1,55.2,50.8,46.3,96,90,70,30.14,29.99,0,0,3,0.00
2014-3-7,63.2,53.5,46.1,47.3,43.5,33.7,91,71,42,30.13,30.06,1,0,7,0.00
2014-3-8,69.8,58.2,49.9,52.7,45.7,36.7,91,65,42,30.15,30.05,0,0,1,0.00
2014-3-9,69.4,60.7,54.5,55.4,48.7,39.3,76,65,46,30.12,30.02,1,0,7,0.00
2014-3-10,67.4,56.8,50.4,53.0,46.0,37.2,95,69,43,30.18,30.03,2,0,12,0.00
2014-3-11,69.8,57.5,47.7,37.4,28.5,21.5,53,35,21,30.13,29.94,0,0,7,0.00
2014-3-12,73.2,60.7,50.5,33.3,26.2,19.6,41,27,18,30.06,29.92,1,0,14,0.00
2014-3-13,71.1,59.7,48.9,48.6,33.2,20.5,94,42,21,30.00,29.92,0,0,2,0.00
2014-3-14,66.6,55.7,48.9,49.7,47.1,42.4,94,75,52,30.17,29.99,0,0,7,0.00
2014-3-15,74.6,62.9,54.5,50.6,43.7,28.7,70,51,26,30.25,30.16,1,0,8,0.00
2014-3-16,69.6,60.6,49.4,53.8,42.9,29.3,88,54,27,30.25,30.13,0,0,3,0.00
2014-3-17,67.9,55.1,48.6,47.7,43.4,31.1,91,66,36,30.15,29.93,0,0,7,0.00
2014-3-18,68.4,57.2,47.9,40.6,30.2,17.2,72,38,20,29.92,29.85,0,0,6,0.00
2014-3-19,71.1,61.2,52.2,40.9,30.8,18.1,46,32,21,30.02,29.90,0,0,5,0.00
2014-3-20,66.0,57.9,47.0,49.7,40.4,24.1,89,54,26,29.99,29.89,0,0,8,0.00
2014-3-21,56.9,49.8,45.8,47.3,45.1,43.1,93,84,69,29.94,29.88,3,0,14,0.00
2014-3-22,58.0,50.5,45.4,47.6,45.2,42.7,93,83,64,30.07,29.93,3,0,10,0.00
2014-3-23,62.3,52.4,45.7,49.0,45.2,33.8,94,78,42,30.12,30.04,2,0,10,0.00
2014-3-24,71.5,58.1,48.2,50.3,43.2,32.6,89,60,32,30.10,29.96,0,0,5,0.00
2014-3-25,56.6,50.8,46.7,51.5,48.0,42.4,96,90,78,29.98,29.80,2,0,8,0.00
2014-3-26,55.7,50.9,47.1,50.5,48.1,45.7,96,91,73,29.92,29.75,1,0,11,0.00
2014-3-27,57.5,52.3,47.9,50.2,46.9,41.9,96,83,58,30.08,29.92,0,0,7,0.00
2014-3-28,62.7,55.2,51.0,51.0,48.4,46.1,94,79,57,30.14,30.06,2,0,10,0.00
2014-3-29,54.5,52.1,48.2,53.1,49.6,44.5,96,91,80,30.07,29.96,1,0,10,0.00
2014-3-30,55.6,49.6,46.2,45.9,43.8,40.2,92,81,61,30.08,29.99,1,0,7,0.00
2014-3-31,50.8,46.4,43.1,45.1,42.3,40.0,95,86,71,30.02,29.78,2,0,14,0.00
2014-4-1,50.7,45.0,41.2,45.5,42.0,39.1,95,90,70,29.88,29.78,2,0,14,0.00
2014-4-2,57.6,48.1,41.8,45.3,42.0,38.5,94,81,49,30.06,29.82,1,0,6,0.00
2014-4-3,56.7,50.1,46.5,46.7,44.7,41.6,94,82,64,30.07,29.99,2,0,10,0.00
2014-4-4,54.4,49.2,46.1,48.3,45.4,41.6,95,87,71,30.00,29.93,1,0,11,0.00
2014-4-5,62.6,52.5,45.2,48.3,44.8,42.6,94,77,53,30.13,30.00,2,0,10,0.00
2014-4-6,70.6,60.4,50.7,52.1,47.4,43.8,80,64,44,30.18,30.05,0,0,3,0.00
2014-4-7,80.1,68.4,59.0,52.1,47.8,41.6,70,50,26,30.09,30.00,0,0,1,0.00
2014-4-8,74.2,65.9,59.3,57.0,50.0,42.6,66,57,42,30.04,29.97,1,0,7,0.00
2014-4-9,62.0,53.6,48.2,51.8,48.8,45.4,96,85,56,30.03,29.94,1,0,7,0.00
2014-4-10,73.0,55.8,46.7,55.4,48.9,39.9,96,80,38,29.99,29.84,2,0,8,0.00
2014-4-11,61.5,51.5,48.8,51.5,48.2,39.2,96,89,46,29.90,29.82,2,0,12,0.00
2014-4-12,56.3,51.0,49.4,48.6,46.8,45.2,93,85,73,29.89,29.82,2,0,11,0.00
2014-4-13,65.0,53.7,48.6,52.7,48.1,44.9,94,82,62,30.00,29.89,4,0,11,0.00
2014-4-14,63.7,54.0,49.4,52.7,49.7,46.9,96,86,64,30.07,29.95,4,0,10,0.00
2014-4-15,61.3,53.7,48.6,51.6,48.5,45.1,95,84,67,30.01,29.85,3,0,12,0.00
2014-4-16,68.8,59.0,49.5,52.0,46.2,39.4,90,65,37,29.88,29.77,1,0,6,0.00
2014-4-17,65.0,58.3,51.6,51.2,48.0,42.1,90,69,53,29.81,29.73,2,0,7,0.00
2014-4-18,60.4,53.5,47.4,50.9,46.9,42.8,89,79,66,29.89,29.80,3,0,10,0.00
2014-4-19,60.1,51.7,46.7,51.9,47.5,44.2,95,86,67,30.06,29.89,3,0,13,0.00
2014-4-20,72.8,59.1,50.8,54.2,46.4,33.9,93,66,34,30.10,30.00,0,0,3,0.00
2014-4-21,62.6,54.4,48.8,49.3,44.1,26.8,94,70,30,30.02,29.91,1,0,8,0.00
2014-4-22,59.8,51.4,46.1,49.6,39.1,31.9,95,65,39,30.07,29.91,1,0,7,0.00
2014-4-23,64.2,53.1,45.1,47.1,39.4,33.7,81,60,42,30.10,30.03,2,0,8,0.00
2014-4-24,57.2,53.3,50.2,52.8,50.0,46.9,96,89,77,30.06,29.92,1,0,10,0.00
2014-4-25,53.9,49.7,45.8,52.8,47.9,41.9,96,94,77,29.92,29.74,1,0,11,0.00
2014-4-26,57.0,48.9,43.3,44.7,41.0,33.4,91,75,41,30.03,29.80,3,0,11,0.00
2014-4-27,57.2,51.3,47.1,50.2,46.1,42.2,95,83,64,30.08,29.96,5,0,16,0.00
2014-4-28,66.3,57.1,46.8,48.8,43.4,33.1,84,62,33,30.17,30.08,2,0,11,0.00
2014-4-29,83.6,69.5,55.1,49.8,40.4,33.2,54,37,20,30.14,29.98,0,0,3,0.00
2014-4-30,87.4,75.3,66.9,48.5,40.2,29.4,41,29,23,30.00,29.94,0,0,1,0.00
2014-5-1,82.6,74.4,67.1,49.7,37.2,24.0,40,26,18,30.02,29.94,0,0,1,0.00
2014-5-2,69.8,62.4,53.8,53.8,45.7,30.7,92,58,26,30.02,29.95,0,0,3,0.00
2014-5-3,61.3,54.4,50.1,51.2,49.6,46.4,95,84,67,29.98,29.93,0,0,5,0.00
2014-5-4,61.0,55.0,50.7,52.7,50.2,47.8,95,84,69,30.01,29.94,1,0,6,0.00
2014-5-5,60.2,54.3,49.4,50.4,46.9,38.8,94,77,53,29.99,29.89,1,0,6,0.00
2014-5-6,64.8,55.2,47.1,47.2,42.6,39.3,85,64,42,29.90,29.81,2,0,12,0.00
2014-5-7,61.6,53.8,47.6,47.9,45.2,42.4,91,74,50,29.93,29.82,1,0,10,0.00
2014-5-8,57.5,53.6,49.1,55.2,50.6,45.1,96,90,82,30.04,29.92,1,0,10,0.00
2014-5-9,63.2,55.8,49.9,54.8,49.0,41.2,96,79,55,30.10,30.03,3,0,8,0.00
2014-5-10,64.0,55.8,47.4,45.2,42.3,36.4,83,62,36,30.08,29.97,2,0,10,0.00
2014-5-11,76.7,63.6,51.0,43.1,34.6,25.4,73,37,15,30.04,29.96,0,0,5,0.00
2014-5-12,79.6,68.5,58.9,49.2,38.8,23.0,51,35,16,30.06,29.97,0,0,2,0.00
2014-5-13,86.1,74.6,66.4,46.0,35.4,25.3,42,25,17,30.06,29.99,0,0,1,0.00
2014-5-14,85.3,77.7,70.1,53.1,37.7,16.9,40,24,11,30.05,29.97,0,0,1,0.00
2014-5-15,83.0,74.5,65.5,55.0,35.7,15.8,45,26,11,30.03,29.97,0,0,1,0.00
2014-5-16,70.1,59.9,50.7,52.9,48.4,24.1,92,69,20,30.01,29.92,1,0,8,0.00
2014-5-17,60.1,55.2,50.7,51.8,49.6,43.4,93,82,62,29.95,29.88,5,0,17,0.00
2014-5-18,66.1,57.7,51.9,53.1,47.9,42.9,92,71,49,29.93,29.87,3,0,16,0.00
2014-5-19,59.8,54.7,50.8,51.3,48.3,44.3,89,79,60,29.91,29.85,3,0,14,0.00
2014-5-20,62.0,54.7,49.4,51.5,48.8,45.8,94,81,60,29.95,29.87,7,0,16,0.00
2014-5-21,64.3,55.5,50.8,53.3,50.3,49.1,94,84,62,29.92,29.86,7,1,20,0.00
2014-5-22,59.5,52.9,49.9,51.9,49.8,48.5,95,90,75,29.97,29.85,6,1,18,0.00
2014-5-23,61.6,54.8,49.4,54.0,50.7,48.0,96,86,64,29.98,29.88,5,1,14,0.00
2014-5-24,64.0,57.5,52.8,53.0,50.1,47.0,91,77,66,29.94,29.87,5,1,13,0.00
2014-5-25,75.1,63.0,52.6,53.9,48.1,42.4,86,60,35,29.93,29.85,5,0,14,0.00
2014-5-26,73.9,64.2,57.3,54.2,48.3,41.7,71,57,47,29.95,29.87,2,0,10,0.00
2014-5-27,69.8,58.8,49.4,50.1,45.8,39.6,92,64,39,29.98,29.92,7,1,13,0.00
2014-5-28,72.1,61.5,50.7,45.6,39.1,30.6,75,45,25,30.01,29.89,1,0,8,0.00
2014-5-29,71.3,60.3,50.8,51.1,43.4,35.1,89,56,29,29.89,29.84,4,0,14,0.00
2014-5-30,55.9,51.1,47.9,49.0,47.6,46.1,94,88,76,29.91,29.83,5,2,16,0.00
2014-5-31,60.2,52.4,49.1,51.3,48.7,47.5,95,88,69,29.92,29.86,5,1,16,0.00
2014-6-1,64.7,54.3,48.3,53.4,49.2,44.7,96,84,57,29.86,29.75,2,0,7,0.00
2014-6-2,56.7,51.5,48.5,50.6,48.7,47.1,96,90,77,29.85,29.76,9,3,19,0.00
2014-6-3,59.2,52.4,48.5,50.8,49.0,47.4,96,89,71,29.89,29.82,5,1,11,0.00
2014-6-4,66.0,54.9,49.4,54.0,50.0,47.1,96,85,59,29.86,29.78,2,0,8,0.00
2014-6-5,58.4,53.2,49.4,53.3,50.6,47.5,96,91,78,29.83,29.76,6,1,12,0.00
2014-6-6,59.6,53.0,49.8,54.2,50.6,48.7,97,92,74,29.81,29.75,5,1,11,0.00
2014-6-7,64.7,55.6,49.9,54.6,50.4,48.6,96,84,60,29.80,29.74,4,0,13,0.00
2014-6-8,88.6,73.5,52.3,58.3,51.5,32.3,91,51,22,29.77,29.66,1,0,6,0.00
2014-6-9,77.4,62.3,53.5,61.2,38.4,-99.9,95,53,29,29.69,29.63,2,-76,8,0.00
2014-6-10,57.0,54.4,53.2,54.9,53.1,52.1,97,95,87,29.78,29.65,10,3,18,0.00
2014-6-11,57.2,54.6,51.7,54.9,52.9,50.3,97,94,85,29.85,29.75,10,3,18,0.00
2014-6-12,60.4,54.2,49.5,52.1,49.9,46.3,97,86,71,29.92,29.84,6,2,18,0.00
2014-6-13,71.8,59.7,51.1,53.2,46.9,-99.9,91,67,39,29.93,29.86,6,-17,10,0.00
2014-6-14,72.7,60.4,51.6,55.4,49.5,45.8,88,68,49,29.87,29.75,4,-4,13,0.00
2014-6-15,64.0,54.4,50.1,51.5,49.3,48.0,94,84,59,29.78,29.72,5,1,19,0.00
2014-6-16,60.1,53.5,49.9,49.7,48.0,46.1,95,82,65,29.84,29.74,8,3,21,0.00
2014-6-17,67.3,59.3,49.8,49.5,43.8,33.2,88,60,30,29.91,29.81,7,1,16,0.00
2014-6-18,75.6,65.4,53.1,54.6,45.6,38.3,87,50,28,29.88,29.83,2,0,11,0.00
2014-6-19,64.8,55.8,50.2,52.0,50.3,48.7,95,82,58,29.95,29.86,5,1,13,0.00
2014-6-20,73.9,60.6,52.5,55.7,51.1,47.7,93,73,49,29.93,29.86,4,0,11,0.00
2014-6-21,62.3,54.7,51.0,50.4,49.0,47.2,93,82,61,29.87,29.82,10,1,18,0.00
2014-6-22,63.1,54.5,50.4,51.7,49.7,48.3,94,85,64,29.90,29.82,9,2,18,0.00
2014-6-23,68.3,58.3,50.5,53.4,50.4,45.2,96,77,49,29.91,29.85,8,1,19,0.00
2014-6-24,71.3,62.9,55.9,55.3,50.4,43.7,87,64,52,29.93,29.87,4,0,10,0.00
2014-6-25,60.4,56.3,53.3,58.1,54.6,51.9,96,94,83,29.95,29.86,8,-3,18,0.00
2014-6-26,61.6,57.6,55.0,58.1,54.6,52.5,99,90,76,29.94,29.90,2,0,10,0.00
2014-6-27,65.8,58.9,54.2,59.2,56.1,53.1,97,91,73,29.94,29.87,3,0,11,0.00
2014-6-28,73.7,62.2,54.2,55.9,53.3,46.6,96,75,43,29.90,29.84,1,0,8,0.00
2014-6-29,78.6,67.9,54.8,56.7,49.4,33.5,88,55,21,29.88,29.76,3,0,11,0.00
2014-6-30,77.2,67.3,55.1,58.3,51.2,37.4,96,60,28,29.77,29.73,2,0,10,0.00
2014-7-1,58.7,55.3,53.6,56.2,54.0,52.5,98,96,88,29.81,29.73,6,0,13,0.00
2014-7-2,63.2,56.9,52.8,58.1,53.6,51.7,98,89,73,29.84,29.77,0,0,2,0.00
2014-7-3,65.0,57.5,52.5,53.9,52.5,51.1,96,84,66,29.88,29.82,1,0,8,0.00
2014-7-4,63.5,55.8,52.6,55.3,52.3,51.2,96,89,69,29.94,29.83,1,0,6,0.00
2014-7-5,67.4,57.7,51.9,55.2,51.9,47.5,96,82,54,30.02,29.94,1,0,7,0.00
2014-7-6,68.8,58.2,50.8,55.7,52.1,45.4,96,81,59,30.00,29.88,1,0,5,0.00
2014-7-7,67.1,56.7,52.6,56.7,53.5,51.5,96,89,68,29.88,29.80,1,0,7,0.00
2014-7-8,60.4,55.9,54.1,56.3,53.9,52.8,96,93,80,29.88,29.79,0,0,3,0.00
2014-7-9,59.5,56.2,54.2,58.0,54.8,53.3,98,95,84,29.90,29.83,0,0,3,0.00
2014-7-10,62.9,58.0,55.7,58.2,55.5,54.1,99,92,76,29.89,29.83,0,0,7,0.00
2014-7-11,62.6,57.9,55.6,56.3,54.7,52.3,98,89,73,30.01,29.88,0,0,3,0.00
2014-7-12,63.2,57.7,54.4,56.1,54.2,53.1,96,88,76,30.04,29.97,1,0,6,0.00
2014-7-13,71.1,61.4,53.6,59.6,55.2,51.1,98,82,51,29.97,29.82,0,0,8,0.00
2014-7-14,71.1,63.9,55.6,57.9,53.7,47.4,96,72,43,29.87,29.78,0,0,2,0.00
2014-7-15,68.8,60.4,55.3,65.2,58.4,54.3,99,93,75,29.95,29.85,0,0,2,0.00
2014-7-16,63.9,60.0,58.3,62.7,58.1,55.9,100,94,81,29.98,29.91,0,0,1,0.00
2014-7-17,61.6,59.1,58.0,60.2,57.7,56.5,98,95,87,29.96,29.91,0,0,1,0.00
2014-7-18,62.4,59.4,58.0,60.4,57.4,55.0,99,93,79,29.97,29.90,0,0,2,0.00
2014-7-19,65.0,59.7,58.0,59.9,57.8,56.1,98,94,76,29.92,29.87,0,0,6,0.00
2014-7-20,63.2,60.2,58.7,62.3,58.8,57.1,99,95,83,29.94,29.86,1,0,7,0.00
2014-7-21,65.2,61.4,58.7,62.6,59.0,55.6,99,92,77,30.01,29.91,0,0,5,0.00
2014-7-22,67.4,61.7,59.3,60.6,58.3,55.3,97,89,67,30.04,29.97,0,0,5,0.00
2014-7-23,68.6,63.8,60.9,61.9,59.5,55.7,97,86,74,30.08,29.97,1,0,3,0.00
2014-7-24,78.6,68.4,58.4,60.9,56.4,46.2,97,69,40,29.98,29.78,1,0,6,0.00
2014-7-25,84.7,71.9,59.8,60.7,52.5,45.1,84,51,39,29.81,29.75,2,0,8,0.00
2014-7-26,72.3,62.8,56.6,59.1,55.7,47.1,96,79,42,29.89,29.79,0,0,1,0.00
2014-7-27,77.2,61.7,57.0,61.1,56.4,40.8,97,85,28,29.94,29.87,3,0,11,0.00
2014-7-28,64.0,59.1,57.0,60.1,56.7,55.1,98,92,76,30.00,29.91,2,0,8,0.00
2014-7-29,72.5,61.5,57.2,61.7,56.7,51.5,99,86,52,30.00,29.92,1,0,8,0.00
2014-7-30,70.6,60.0,57.2,60.4,57.0,55.5,98,90,64,29.96,29.89,1,0,7,0.00
2014-7-31,68.3,58.8,56.6,61.0,55.7,55.0,99,88,67,29.93,29.83,2,0,10,0.00
2014-8-1,70.4,60.5,56.7,59.4,56.6,54.7,97,87,64,29.88,29.82,2,0,10,0.00
2014-8-2,62.7,58.3,56.6,60.7,56.4,54.6,99,94,78,29.90,29.82,5,1,12,0.00
2014-8-3,61.2,58.0,56.5,60.0,56.9,53.9,100,96,80,29.92,29.85,4,2,14,0.00
2014-8-4,65.0,59.2,56.7,60.6,57.9,55.8,100,96,77,29.95,29.87,1,0,8,0.00
2014-8-5,71.1,63.4,58.7,62.1,59.3,57.6,99,88,69,30.01,29.94,1,0,5,0.00
2014-8-6,71.5,65.0,57.2,63.9,59.2,55.2,97,82,64,29.97,29.89,2,0,8,0.00
2014-8-7,63.4,59.2,56.9,61.2,56.5,54.6,99,91,76,29.92,29.84,7,2,16,0.00
2014-8-8,66.6,59.9,56.0,56.5,54.8,52.2,96,84,68,29.88,29.81,7,2,16,0.00
2014-8-9,59.3,56.3,55.1,55.8,54.3,52.4,97,93,81,29.92,29.83,7,3,20,0.00
2014-8-10,62.9,58.5,55.6,59.6,56.3,54.3,100,93,78,29.95,29.88,7,2,18,0.00
2014-8-11,65.3,60.4,57.8,58.4,56.6,54.0,97,88,70,29.91,29.84,8,1,12,0.00
2014-8-12,64.7,53.8,57.0,57.9,46.2,53.2,96,72,71,29.94,29.86,6,1,12,0.00
2014-8-13,67.6,60.3,56.3,57.9,55.7,54.0,95,85,67,29.96,29.86,5,1,12,0.00
2014-8-14,67.3,59.8,57.0,59.5,56.9,55.1,99,91,67,29.92,29.85,6,0,11,0.00
2014-8-15,68.6,60.2,57.0,61.6,57.7,55.6,100,92,67,29.96,29.88,4,0,10,0.00
2014-8-16,68.1,60.0,56.9,61.6,57.3,55.1,100,91,70,30.00,29.92,4,0,10,0.00
2014-8-17,65.0,59.5,56.0,60.4,56.6,55.4,99,91,74,29.98,29.87,4,1,11,0.00
2014-8-18,60.5,58.2,56.9,60.2,57.6,55.6,100,98,86,29.85,29.76,5,2,16,0.00
2014-8-19,63.1,59.6,57.3,62.4,58.4,56.6,100,96,86,29.81,29.76,6,2,16,0.00
2014-8-20,61.5,60.1,58.9,60.9,58.9,56.4,99,96,87,29.89,29.78,5,2,14,0.00
2014-8-21,67.9,61.8,59.0,63.7,59.1,54.6,100,91,71,29.92,29.84,5,0,10,0.00
2014-8-22,64.3,60.2,57.5,61.5,58.2,55.9,100,94,79,29.90,29.84,5,2,13,0.00
2014-8-23,66.3,60.3,57.3,58.0,55.7,53.7,98,85,68,29.91,29.81,6,1,14,0.00
2014-8-24,65.8,60.0,57.5,57.3,55.9,54.4,96,87,71,29.86,29.77,7,3,13,0.00
2014-8-25,63.7,59.5,57.5,57.0,55.4,53.6,93,86,74,29.89,29.77,8,3,18,0.00
2014-8-26,67.8,61.0,57.6,58.1,55.8,53.8,94,83,66,29.96,29.89,5,1,13,0.00
2014-8-27,73.7,62.6,58.6,60.5,58.3,56.4,97,87,57,30.01,29.93,5,0,12,0.00
2014-8-28,71.5,61.1,58.0,62.0,58.1,56.7,99,91,65,30.01,29.88,3,0,11,0.00
2014-8-29,69.1,60.9,58.1,63.7,58.7,56.1,100,93,71,29.90,29.82,4,1,14,0.00
2014-8-30,75.1,65.0,59.0,60.5,56.8,49.5,95,75,55,29.87,29.79,5,1,13,0.00
2014-8-31,73.2,62.9,58.9,59.6,57.6,54.9,99,84,60,29.87,29.77,6,1,14,0.00
2014-9-1,79.6,65.7,58.0,60.0,55.9,51.3,93,73,47,29.80,29.70,3,0,8,0.00
2014-9-2,61.6,59.3,58.3,59.5,58.1,56.9,99,96,87,29.80,29.71,7,1,14,0.00
2014-9-3,67.3,60.6,58.6,62.0,58.3,56.3,100,93,70,29.75,29.66,7,1,11,0.00
2014-9-4,64.2,59.9,58.1,61.2,58.0,55.7,99,94,75,29.74,29.65,7,1,13,0.00
2014-9-5,64.3,59.4,57.6,59.0,56.9,55.0,99,92,74,29.86,29.74,6,1,14,0.00
2014-9-6,65.8,59.0,56.6,57.2,55.0,53.0,96,87,67,29.91,29.83,5,1,13,0.00
2014-9-7,66.1,58.4,55.4,55.8,54.0,52.0,94,86,66,29.85,29.75,5,1,13,0.00
2014-9-8,61.5,56.6,54.1,54.5,52.4,49.9,93,86,70,29.88,29.78,5,1,16,0.00
2014-9-9,67.3,59.1,55.9,57.0,55.0,53.4,96,87,67,29.94,29.84,2,0,12,0.00
2014-9-10,86.1,67.2,57.2,60.9,55.4,43.6,98,69,34,29.89,29.77,0,0,3,0.00
2014-9-11,83.8,67.2,57.2,62.1,54.2,39.3,95,66,28,29.84,29.76,2,0,7,0.00
2014-9-12,84.7,65.6,56.7,61.6,55.8,40.4,97,74,34,29.84,29.74,1,0,6,0.00
2014-9-13,72.7,61.4,58.1,61.0,57.8,53.4,99,89,62,29.80,29.73,3,0,10,0.00
2014-9-14,72.0,61.9,57.5,58.6,56.9,52.2,98,85,53,29.82,29.74,1,0,7,0.00
2014-9-15,70.9,62.2,58.6,59.2,57.6,54.3,98,86,57,29.86,29.77,4,0,12,0.00
2014-9-16,74.2,63.8,59.6,60.9,58.5,55.2,97,84,57,29.87,29.75,3,0,11,0.00
2014-9-17,69.6,64.0,59.9,64.3,59.0,56.0,98,85,64,29.76,29.70,4,1,18,0.00
2014-9-18,67.8,66.1,65.3,65.6,64.5,61.0,98,95,83,29.82,29.70,4,1,17,0.00
2014-9-27,67.9,46.6,57.0,60.4,33.7,51.8,92,47,66,29.87,29.76,4,0,13,0.00
2014-9-28,66.1,60.4,58.6,58.4,56.9,55.0,96,88,74,29.90,29.75,3,0,6,0.00
2014-9-29,64.8,59.9,58.3,60.7,57.9,55.7,99,93,76,29.98,29.89,3,0,11,0.00
2014-9-30,69.1,63.1,57.5,59.6,55.9,47.3,98,79,49,29.91,29.79,2,0,8,0.00
2014-10-1,83.6,70.3,61.8,51.8,40.1,30.1,66,36,17,29.86,29.78,0,0,1,0.00
2014-10-2,89.0,71.7,67.3,46.3,33.4,29.7,44,22,16,29.97,29.86,0,0,1,0.00
2014-10-3,94.7,66.2,72.7,49.6,26.8,27.7,27,15,12,30.05,29.92,0,0,1,0.00
2014-10-4,89.0,53.9,73.5,51.4,23.1,27.4,32,13,15,30.00,29.84,0,0,1,0.00
2014-10-5,88.0,78.3,71.8,57.2,38.1,24.4,41,24,16,29.88,29.79,1,0,6,0.00
2014-10-6,87.4,76.4,68.6,59.6,43.3,32.2,59,32,20,29.85,29.76,0,0,2,0.00
2014-10-7,74.4,52.7,55.3,59.6,35.5,27.6,93,44,23,29.86,29.77,1,0,5,0.00
2014-10-8,83.0,68.3,56.3,59.5,49.4,34.3,94,55,20,29.86,29.79,1,0,6,0.00
2014-10-9,63.9,41.6,56.0,60.7,34.4,49.7,99,58,65,29.92,29.82,7,0,10,0.00
2014-10-10,63.7,50.8,55.7,59.3,44.6,51.7,99,73,72,30.01,29.92,9,1,13,0.00
2014-10-11,72.8,45.2,55.0,62.4,34.1,50.7,98,45,52,30.01,29.89,11,0,11,0.00
2014-10-12,89.7,72.7,64.5,53.8,37.7,15.5,65,31,10,29.92,29.82,0,0,3,0.00
2014-10-13,79.2,68.2,58.1,58.7,38.5,9.8,98,49,8,29.89,29.83,7,1,11,0.00
2014-10-14,65.0,54.8,58.1,59.5,44.3,53.3,99,66,67,29.88,29.76,13,2,25,0.00
2014-10-15,64.7,49.5,57.8,59.0,44.2,53.6,96,67,71,29.98,29.79,10,1,15,0.00
2014-10-16,60.9,15.8,55.4,53.2,8.3,46.1,84,12,68,29.98,29.87,8,0,11,0.00
2014-10-17,68.9,46.5,56.0,56.3,33.0,42.4,86,42,50,29.92,29.86,6,0,8,0.00
2014-10-18,68.6,33.6,59.9,59.4,26.9,52.4,84,39,70,29.94,29.82,0,0,0,0.00
2014-10-19,69.3,59.6,59.8,63.3,55.9,54.1,97,84,72,29.86,29.80,5,0,10,0.00
2014-10-20,63.7,52.5,56.3,59.8,41.5,49.9,97,65,75,30.00,29.83,9,1,13,0.00
2014-10-21,69.4,58.5,52.8,52.1,47.7,38.8,90,69,35,30.05,29.95,4,0,8,0.00
2014-10-22,68.8,56.2,54.5,56.9,47.8,44.3,84,68,52,30.03,29.96,2,0,7,0.00
2014-10-23,59.2,59.1,59.0,54.4,54.3,54.2,84,84,84,29.97,29.97,0,0,0,0.00
2014-10-25,60.1,35.4,57.8,57.2,34.2,55.5,94,56,90,30.08,30.00,0,0,2,0.00
2014-10-26,66.9,57.7,52.8,55.2,47.8,40.6,93,71,39,30.12,29.99,3,0,14,0.00
2014-10-27,65.6,57.4,51.4,50.1,46.6,43.5,81,68,49,30.01,29.95,1,0,7,0.00
2014-10-28,69.1,52.8,53.8,52.2,40.6,44.7,75,54,46,30.06,29.99,2,0,5,0.00
2014-10-29,80.1,61.6,59.0,50.7,39.4,39.0,70,38,27,30.05,29.90,1,0,8,0.00
2014-10-30,70.9,64.0,58.3,59.3,51.7,44.1,98,68,39,29.90,29.82,5,0,12,0.00
2014-10-31,59.6,57.4,54.7,58.1,55.0,51.0,97,92,81,29.84,29.66,6,1,13,0.00
2014-11-1,60.2,52.6,51.7,51.8,45.4,42.9,88,73,57,29.98,29.66,5,1,14,0.00
2014-11-2,64.5,55.6,49.1,51.6,44.9,37.7,89,68,42,30.11,29.98,4,0,7,0.00
2014-11-3,63.9,56.7,51.0,51.8,45.1,37.8,89,66,39,30.20,30.10,1,0,8,0.00
2014-11-4,70.4,60.9,52.0,53.1,45.6,35.7,94,60,28,30.26,30.17,0,0,6,0.00
2014-11-5,75.1,65.3,58.9,48.0,44.0,39.1,57,46,34,30.17,30.01,1,0,11,0.00
2014-11-6,71.3,63.3,58.0,56.0,50.2,44.9,80,63,52,30.16,30.07,3,0,6,0.00
2014-11-7,70.4,59.6,56.3,58.7,50.4,50.2,91,70,56,30.16,30.03,0,0,1,0.00
2014-11-8,78.5,45.0,61.0,58.0,28.2,45.2,68,27,33,30.06,29.93,0,0,5,0.00
2014-11-9,71.6,47.6,59.6,58.7,38.3,46.1,81,46,55,29.93,29.75,0,0,0,0.00
2014-11-10,62.3,53.1,55.9,56.2,47.6,47.0,97,73,63,29.78,29.72,4,0,7,0.00
2014-11-11,59.3,54.8,54.4,55.9,48.5,46.4,97,78,67,29.91,29.77,8,1,14,0.00
2014-11-12,61.3,56.2,53.6,50.1,46.3,44.2,86,70,56,29.97,29.90,4,0,11,0.00
2014-11-13,61.0,58.2,53.5,60.4,57.1,50.1,98,96,86,30.02,29.86,4,0,19,0.00
2014-11-14,61.0,54.6,54.1,57.4,51.9,49.8,99,86,77,30.05,30.00,2,0,10,0.00
2014-11-15,62.6,53.8,51.3,51.0,46.3,45.8,90,72,58,30.13,30.02,0,0,3,0.00
2014-11-16,59.9,53.9,49.2,48.5,29.8,19.0,85,44,22,30.20,30.12,1,0,13,0.00
2014-11-17,63.9,54.8,49.1,39.0,30.2,20.6,63,40,25,30.17,30.04,1,0,14,0.00
2014-11-18,62.0,54.7,50.4,41.7,39.7,33.3,67,57,43,30.08,29.99,3,0,12,0.00
2014-11-19,59.0,56.3,50.7,58.1,46.8,29.7,98,74,36,30.08,29.93,8,1,25,0.00
2014-11-20,55.7,54.6,53.3,55.1,53.4,49.6,98,96,83,30.06,29.91,5,0,19,0.00
2014-11-21,58.3,54.6,51.4,52.7,50.9,49.0,96,88,75,30.06,29.97,4,0,12,0.00
2014-11-22,65.3,57.1,50.7,62.0,53.1,45.4,99,87,69,30.19,29.98,10,2,25,0.00
2014-11-23,63.5,53.9,48.2,46.4,40.4,34.6,88,62,38,30.28,30.17,0,0,5,0.00
2014-11-24,68.8,56.4,48.2,45.7,35.5,28.7,67,47,25,30.35,30.25,0,0,1,0.00
2014-11-25,65.5,43.3,51.6,48.0,28.7,31.7,65,38,40,30.40,30.26,1,0,2,0.00
2014-11-26,69.9,59.8,53.9,49.1,44.3,35.6,72,57,43,30.26,30.14,1,0,8,0.00
2014-11-27,69.3,60.2,51.6,53.9,46.3,39.3,94,61,49,30.13,29.99,0,0,1,0.00
2014-11-28,60.7,54.5,50.4,56.7,51.1,48.8,97,89,68,29.99,29.78,7,0,17,0.00
2014-11-29,60.4,57.7,54.4,58.7,55.9,53.3,98,94,85,29.80,29.68,8,1,16,0.00
2014-11-30,58.7,55.3,51.0,56.5,51.4,43.1,96,87,71,29.97,29.67,4,0,11,0.00
2014-12-1,64.5,55.9,54.7,55.8,49.9,51.8,92,79,70,30.06,29.88,3,0,7,0.00
2014-12-2,60.4,55.7,54.4,58.1,51.9,50.9,97,88,81,29.89,29.62,5,0,12,0.00
2014-12-3,62.0,59.5,57.0,59.9,57.6,55.0,98,94,84,29.82,29.63,0,0,10,0.00
2014-12-4,63.4,59.5,57.5,58.9,56.6,53.1,98,90,77,29.96,29.81,1,0,5,0.00
2014-12-5,63.4,60.3,57.6,58.1,55.7,54.0,96,85,75,30.01,29.91,1,0,2,0.00
2014-12-6,63.9,59.4,57.2,60.9,57.5,55.7,98,94,83,30.16,30.01,1,0,1,0.00
2014-12-7,61.5,58.5,56.3,57.6,55.6,54.0,96,90,79,30.15,30.08,0,0,2,0.00